Archival Weather

Heathrow

Heathrow, United Kingdom (EGLL)

Report from: Thursday, June 23, 2022 2:20 AM BST
Current time: Tuesday, August 16, 2022 8:12 AM BST

Current weather
Weather history
Weather forecast

Temperature15.0°C (59.0°F)
Dew point11.0°C (51.8°F)
Winds 2 kts (1 m/s, 2.3 mph) Vrb
Winds variableWinds variable
Visibility6.2 mi. (10 km)
Clouds Sky clear
Altimeter29.88 in.Hg (1012 mB)
Relative humidity77 %
Density altitude227 ft. (69 m)
Remarks Fully automated report
Corrected report
No clouds detected
No significant changes expected in the next two hours
Flight conditions Visual Meteorological Conditions
Raw dataCOR EGLL 230120Z AUTO VRB02KT 9999 NCD 15/11 Q1012 NOSIG
An error has occurred. This application may no longer respond until reloaded. Reload 🗙